Terminal Aerodrome Forecast
Issued by NWS Topeka, KS

Home | Current Version | Previous Version | Text Only | Print | Product List | Glossary Off
Versions: 1 2 3 4 5 6 7 8 9 10 11 12 13 14 15 16

409
FTUS43 KTOP 251959 AAA
TAFTOP
TAF AMD
KTOP 251959Z 2520/2618 35005KT P6SM VCSH BKN080
      TEMPO 2520/2524 3SM -RA
     FM260100 20004KT P6SM FEW090=

USA.gov is the U.S. government's official web portal to all federal, state and local government web resources and services.